Latest Weather Observations for Loxton

IDS60801

Issued at 1:05 pm CST Wednesday 23 July 2014 (issued every 30 minutes, with the page automatically refreshed every 10 minutes)

About weather observations | Map of weather stations | Latest weather observations for SA | Other Formats
Station Details ID: 024024 Name: LOXTON RESEARCH CENTRE Lat: -34.44 Lon: 140.60 Height: 30.1 m
Data from the previous 72 hours. | See also: Recent months at Loxton
Date/Time
CST
Temp
°C
App
Temp
°C
Dew
Point
Rel
Hum
%
Delta-T
°C
Wind Press
QNH
hPa
Press
MSL
hPa
Rain
since 9 am
mm
Dir
 
Spd
km/h
Gust
km/h
Spd
kts
Gust
kts
23/01:00pm 14.1 9.8 3.2 48 4.9 NNE 15 20 8 11 1017.3 - 0.0
23/12:30pm 13.6 9.6 3.0 48 4.7 NNE 13 20 7 11 1017.9 1017.9 0.0
23/12:00pm 13.3 9.4 3.5 51 4.4 NNE 13 19 7 10 1018.8 1018.8 0.0
23/11:30am 12.4 8.4 2.8 52 4.2 NNE 13 17 7 9 1019.4 1019.4 0.0
23/11:00am 11.9 7.6 3.0 54 3.9 NNE 15 20 8 11 1020.1 - 0.0
23/10:30am 10.7 6.6 2.5 57 3.5 NE 13 19 7 10 1020.6 1020.6 0.0
23/10:00am 9.4 4.5 2.0 60 3.1 NE 17 20 9 11 1021.0 - 0.0
23/09:30am 8.3 3.8 2.3 66 2.5 ENE 15 19 8 10 1020.9 1020.9 0.0
23/09:00am 6.8 2.8 2.7 75 1.7 E 13 19 7 10 1021.1 1021.1 0.0
23/08:30am 5.6 1.6 2.7 81 1.2 E 13 17 7 9 1021.1 1021.1 0.0
23/08:00am 5.0 0.9 2.5 84 1.0 E 13 17 7 9 1021.2 - 0.0
23/07:30am 4.7 1.0 2.5 86 0.9 E 11 15 6 8 1021.1 1021.1 0.0
23/07:00am 4.1 1.2 2.6 90 0.6 ENE 7 9 4 5 1021.3 - 0.0
23/06:30am 4.4 1.1 2.7 89 0.7 E 9 11 5 6 1021.1 1021.1 0.0
23/06:00am 4.8 0.8 2.6 86 0.9 E 13 15 7 8 1020.9 1020.9 0.0
23/05:30am 4.8 1.2 2.8 87 0.8 E 11 15 6 8 1020.8 1020.8 0.0
23/05:00am 4.7 1.1 2.7 87 0.8 E 11 13 6 7 1021.1 - 0.0
23/04:30am 4.8 0.8 2.8 87 0.8 E 13 17 7 9 1021.0 1021.0 0.0
23/04:00am 4.7 1.1 2.7 87 0.8 E 11 15 6 8 1021.2 - 0.0
23/03:30am 4.7 1.4 2.5 86 0.9 E 9 13 5 7 1021.4 1021.4 0.0
23/03:00am 4.8 1.1 2.6 86 0.9 E 11 13 6 7 1022.0 1022.0 0.0
23/02:30am 4.8 1.5 2.6 86 0.9 E 9 13 5 7 1022.1 1022.1 0.0
23/02:00am 4.8 1.5 2.3 84 1.0 E 9 11 5 6 1022.0 - 0.0
23/01:30am 5.2 1.5 2.2 81 1.2 E 11 13 6 7 1022.0 1022.0 0.0
23/01:00am 5.2 1.9 2.2 81 1.2 E 9 13 5 7 1022.2 - 0.0
23/12:30am 4.8 2.0 2.0 82 1.1 E 6 7 3 4 1022.6 1022.6 0.0
23/12:00am 4.5 1.5 2.0 84 1.0 E 7 9 4 5 1022.6 1022.6 0.0
 
Date/Time
CST
Temp
°C
App
Temp
°C
Dew
Point
Rel
Hum
%
Delta-T
°C
Wind Press
QNH
hPa
Press
MSL
hPa
Rain
since 9 am
mm
Dir
 
Spd
km/h
Gust
km/h
Spd
kts
Gust
kts
22/11:30pm 4.7 1.9 1.9 82 1.1 E 6 7 3 4 1022.6 1022.6 0.0
22/11:00pm 5.7 2.4 2.2 78 1.4 E 9 11 5 6 1022.8 - 0.0
22/10:30pm 6.0 1.9 2.3 77 1.5 E 13 15 7 8 1022.8 1022.8 0.0
22/10:00pm 6.7 2.6 2.3 73 1.8 E 13 17 7 9 1022.8 - 0.0
22/09:30pm 7.3 2.8 2.2 70 2.1 E 15 17 8 9 1022.9 1022.9 0.0
22/09:00pm 7.7 3.1 1.8 66 2.4 E 15 17 8 9 1022.9 1022.9 0.0
22/08:30pm 7.7 3.6 2.1 67 2.3 E 13 17 7 9 1022.9 1022.9 0.0
22/08:00pm 7.8 3.6 1.9 66 2.4 E 13 15 7 8 1023.2 - 0.0
22/07:30pm 8.2 4.1 2.2 66 2.5 E 13 19 7 10 1023.2 1023.2 0.0
22/07:00pm 9.6 5.4 1.9 58 3.2 E 13 15 7 8 1023.1 - 0.0
22/06:30pm 10.1 6.4 2.3 58 3.3 ENE 11 15 6 8 1023.1 1023.1 0.0
22/06:00pm 10.7 7.1 2.8 58 3.4 E 11 15 6 8 1022.9 1022.9 0.0
22/05:30pm 12.3 8.6 2.6 51 4.2 E 11 13 6 7 1022.6 1022.6 0.0
22/05:00pm 14.7 11.0 2.5 43 5.4 E 11 15 6 8 1022.6 - 0.0
22/04:30pm 16.1 12.3 1.5 37 6.4 ENE 11 15 6 8 1022.7 1022.7 0.0
22/04:00pm 16.6 12.4 1.4 36 6.7 ENE 13 17 7 9 1022.4 - 0.0
22/03:30pm 16.9 12.7 1.5 35 6.8 ENE 13 20 7 11 1022.2 1022.2 0.0
22/03:00pm 16.7 12.4 1.2 35 6.8 ENE 13 22 7 12 1022.4 1022.4 0.0
22/02:30pm 17.0 12.9 2.0 36 6.7 NE 13 20 7 11 1022.5 1022.5 0.0
22/02:00pm 16.9 12.6 0.8 33 7.0 ENE 13 17 7 9 1022.7 - 0.0
22/01:30pm 17.0 13.2 2.0 36 6.7 NNE 11 17 6 9 1023.0 1023.0 0.0
22/01:00pm 16.0 12.1 1.4 37 6.4 NE 11 20 6 11 1023.5 - 0.0
22/12:30pm 15.7 11.7 2.8 42 5.8 NNE 13 19 7 10 1023.7 1023.7 0.0
22/12:00pm 15.0 11.8 2.9 44 5.4 NE 9 15 5 8 1024.3 1024.3 0.0
22/11:30am 14.0 10.4 2.7 46 5.0 NE 11 17 6 9 1024.8 1024.8 0.0
22/11:00am 12.8 8.7 2.1 48 4.6 NNE 13 17 7 9 1025.5 - 0.0
22/10:30am 11.9 7.9 2.7 53 4.0 NNE 13 17 7 9 1025.9 1025.9 0.0
22/10:00am 10.9 6.9 3.0 58 3.4 N 13 17 7 9 1026.1 - 0.0
22/09:30am 9.1 6.0 3.8 69 2.3 NE 9 13 5 7 1026.1 1026.1 0.0
22/09:00am 6.3 3.0 2.6 77 1.5 E 9 13 5 7 1026.0 1026.0 0.2
22/08:30am 3.9 0.9 2.1 88 0.7 ESE 7 9 4 5 1025.9 1025.9 0.2
22/08:00am 1.8 -1.4 0.7 92 0.4 SE 7 9 4 5 1025.8 - 0.2
22/07:30am -0.7 - - - - CALM 0 0 0 0 1025.7 1025.7 0.0
22/07:00am -0.8 - - - - CALM 0 0 0 0 1025.2 - 0.0
22/06:30am -1.0 - - - - SE 6 7 3 4 1024.7 1024.7 0.0
22/06:00am -0.4 - - - - SE 6 7 3 4 1024.4 1024.4 0.0
22/05:30am -0.1 - - - - SE 6 6 3 3 1024.2 1024.2 0.0
22/05:00am 0.0 - - - - SE 6 6 3 3 1024.1 - 0.0
22/04:30am -0.1 - - - - SE 7 9 4 5 1023.9 1023.9 0.0
22/04:00am 0.2 - - - - SE 6 7 3 4 1023.8 - 0.0
22/03:30am 0.5 -2.6 0.2 98 0.1 SE 6 7 3 4 1023.8 1023.8 0.0
22/03:00am 0.9 -2.4 0.1 94 0.3 SE 7 7 4 4 1023.7 1023.7 0.0
22/02:30am 1.5 -1.4 1.2 98 0.1 SE 6 7 3 4 1023.8 1023.8 0.0
22/02:00am 2.1 -0.8 1.6 96 0.2 ESE 6 7 3 4 1023.8 - 0.0
22/01:30am 2.8 -0.3 1.5 91 0.5 E 7 9 4 5 1023.7 1023.7 0.0
22/01:00am 4.3 1.0 2.3 87 0.8 E 9 9 5 5 1023.7 - 0.0
22/12:30am 4.8 1.9 2.6 86 0.9 ENE 7 9 4 5 1023.8 1023.8 0.0
22/12:00am 4.2 2.7 3.0 92 0.5 CALM 0 0 0 0 1023.8 1023.8 0.0
 
Date/Time
CST
Temp
°C
App
Temp
°C
Dew
Point
Rel
Hum
%
Delta-T
°C
Wind Press
QNH
hPa
Press
MSL
hPa
Rain
since 9 am
mm
Dir
 
Spd
km/h
Gust
km/h
Spd
kts
Gust
kts
21/11:30pm 4.1 1.3 2.9 92 0.5 E 7 9 4 5 1023.7 1023.7 0.0
21/11:00pm 5.2 2.0 3.3 87 0.8 SE 9 11 5 6 1023.7 - 0.0
21/10:30pm 5.1 1.9 3.2 87 0.8 E 9 11 5 6 1023.6 1023.6 0.0
21/10:00pm 5.7 2.9 3.0 83 1.1 ESE 7 11 4 6 1023.7 - 0.0
21/09:30pm 6.0 3.4 3.4 83 1.1 E 6 7 3 4 1023.7 1023.7 0.0
21/09:00pm 7.1 4.7 4.1 81 1.3 E 6 7 3 4 1023.6 1023.6 0.0
21/08:30pm 8.1 5.4 3.9 75 1.8 ESE 7 9 4 5 1023.6 1023.6 0.0
21/08:00pm 8.3 5.7 4.2 75 1.8 ESE 7 9 4 5 1023.4 - 0.0
21/07:30pm 8.2 5.6 4.3 76 1.7 ESE 7 7 4 4 1023.2 1023.2 0.0
21/07:00pm 8.9 6.3 4.1 72 2.1 ESE 7 9 4 5 1023.1 - 0.0
21/06:30pm 9.8 7.1 3.6 65 2.7 ESE 7 7 4 4 1022.7 1022.7 0.0
21/06:00pm 10.7 7.7 4.2 64 2.9 ESE 9 9 5 5 1022.4 1022.4 0.0
21/05:30pm 12.5 9.3 3.2 53 4.1 E 9 13 5 7 1022.0 1022.0 0.0
21/05:00pm 14.2 10.5 2.4 45 5.2 E 11 15 6 8 1021.8 - 0.0
21/04:30pm 15.3 11.5 1.6 39 6.0 ENE 11 17 6 9 1021.8 1021.8 0.0
21/04:00pm 15.9 12.1 1.5 37 6.3 NE 11 17 6 9 1021.8 - 0.0
21/03:30pm 15.7 12.6 1.2 37 6.3 ENE 7 13 4 7 1021.7 1021.7 0.0
21/03:00pm 16.2 12.2 0.7 35 6.7 NNE 11 15 6 8 1021.5 1021.5 0.0
21/02:30pm 16.8 13.2 0.7 33 7.0 N 9 15 5 8 1021.8 1021.8 0.0
21/02:00pm 16.2 12.6 0.3 34 6.8 N 9 13 5 7 1022.0 - 0.0
21/01:30pm 15.5 11.3 1.5 38 6.1 NNE 13 17 7 9 1022.3 1022.3 0.0
21/01:00pm 15.1 11.8 2.5 42 5.6 NNE 9 15 5 8 1022.7 - 0.0
21/12:30pm 14.3 11.5 3.4 48 4.9 NNE 7 11 4 6 1023.0 1023.0 0.0
21/12:00pm 12.8 10.3 5.0 59 3.6 ENE 7 11 4 6 1023.4 1023.4 0.0
21/11:30am 11.4 8.4 4.2 61 3.2 NNE 9 13 5 7 1023.9 1023.9 0.0
21/11:00am 9.6 6.7 4.4 70 2.3 NNE 9 13 5 7 1024.3 - 0.0
21/10:30am 9.0 5.7 4.7 74 1.9 NE 11 15 6 8 1024.7 1024.7 0.0
21/10:00am 8.0 4.8 5.1 82 1.3 ENE 11 15 6 8 1025.0 - 0.0
21/09:30am 6.8 3.9 4.7 86 0.9 ENE 9 13 5 7 1025.0 1025.0 0.0
21/09:00am 5.6 2.7 4.7 94 0.4 E 9 13 5 7 1024.9 1024.9 0.0
21/08:30am 4.2 1.5 3.5 95 0.3 ESE 7 9 4 5 1024.9 1024.9 0.0
21/08:00am 2.5 -0.3 2.0 96 0.2 ESE 6 7 3 4 1024.9 - 0.0
21/07:30am 1.8 0.0 1.5 98 0.1 CALM 0 0 0 0 1024.8 1024.8 0.0
21/07:00am 1.2 -0.7 0.7 96 0.2 CALM 0 0 0 0 1024.6 - 0.0
21/06:30am 0.6 -1.4 0.0 96 0.2 CALM 0 0 0 0 1024.5 1024.5 0.0
21/06:00am 1.8 0.0 1.5 98 0.1 CALM 0 0 0 0 1024.2 1024.2 0.0
21/05:30am 1.9 -1.0 1.6 98 0.1 E 6 9 3 5 1023.9 1023.9 0.0
21/05:00am 2.5 -0.8 2.2 98 0.1 E 9 9 5 5 1023.7 - 0.0
21/04:30am 4.0 1.2 3.3 95 0.3 E 7 9 4 5 1023.7 1023.7 0.0
21/04:00am 4.5 1.8 3.8 95 0.3 E 7 11 4 6 1023.6 - 0.0
21/03:30am 5.1 2.1 4.1 93 0.4 E 9 13 5 7 1023.7 1023.7 0.0
21/03:00am 4.9 1.9 3.9 93 0.4 E 9 11 5 6 1023.9 1023.9 0.0
21/02:30am 4.4 1.6 3.4 93 0.4 E 7 7 4 4 1024.1 1024.1 0.0
21/02:00am 4.9 2.2 3.9 93 0.4 E 7 9 4 5 1024.3 - 0.0
21/01:30am 5.7 3.3 4.3 91 0.6 E 6 7 3 4 1024.5 1024.5 0.0
21/01:00am 5.6 3.0 4.4 92 0.5 E 7 9 4 5 1024.5 - 0.0
21/12:30am 5.8 3.3 4.6 92 0.5 ESE 7 9 4 5 1024.6 1024.6 0.0
21/12:00am 5.9 3.0 4.5 91 0.6 E 9 11 5 6 1024.9 1024.9 0.0
 
Date/Time
CST
Temp
°C
App
Temp
°C
Dew
Point
Rel
Hum
%
Delta-T
°C
Wind Press
QNH
hPa
Press
MSL
hPa
Rain
since 9 am
mm
Dir
 
Spd
km/h
Gust
km/h
Spd
kts
Gust
kts
20/11:30pm 5.7 2.7 4.3 91 0.6 E 9 11 5 6 1025.2 1025.2 0.0
20/11:00pm 5.4 4.1 4.2 92 0.5 CALM 0 0 0 0 1025.5 - 0.0
20/10:30pm 6.7 5.6 5.3 91 0.6 CALM 0 0 0 0 1025.6 1025.6 0.0
20/10:00pm 7.4 5.0 5.4 87 0.9 E 7 9 4 5 1025.7 - 0.0
20/09:30pm 7.3 4.9 5.3 87 0.9 E 7 11 4 6 1025.4 1025.4 0.0
20/09:00pm 7.2 4.8 5.2 87 0.9 ENE 7 7 4 4 1025.7 1025.7 0.0
20/08:30pm 7.6 5.2 5.1 84 1.1 E 7 9 4 5 1025.7 1025.7 0.0
20/08:00pm 7.7 4.9 5.0 83 1.2 ESE 9 9 5 5 1025.6 - 0.0
20/07:30pm 7.7 5.2 5.0 83 1.2 E 7 7 4 4 1025.6 1025.6 0.0
20/07:00pm 7.7 4.4 4.7 81 1.3 E 11 13 6 7 1025.6 - 0.0
20/06:30pm 7.3 6.1 4.8 84 1.1 CALM 0 0 0 0 1025.6 1025.6 0.0
20/06:00pm 8.5 6.4 5.6 82 1.3 ENE 6 7 3 4 1025.3 1025.3 0.0
20/05:30pm 9.9 7.6 5.5 74 2.0 ENE 7 9 4 5 1025.1 1025.1 0.0
20/05:00pm 11.1 8.9 5.2 67 2.7 ENE 6 7 3 4 1024.9 - 0.0
20/04:30pm 11.8 8.9 4.5 61 3.3 ENE 9 15 5 8 1024.8 1024.8 0.0
20/04:00pm 12.1 8.0 4.1 58 3.6 ENE 15 17 8 9 1024.9 - 0.0
20/03:30pm 12.2 8.5 4.5 59 3.5 ENE 13 15 7 8 1025.1 1025.1 0.0
20/03:00pm 12.2 8.8 3.9 57 3.7 ENE 11 17 6 9 1025.3 1025.3 0.0
20/02:30pm 12.4 9.3 3.6 55 3.9 NE 9 13 5 7 1025.6 1025.6 0.0
20/02:00pm 13.4 10.3 3.6 51 4.4 NE 9 13 5 7 1025.7 - 0.0
20/01:30pm 12.4 9.4 4.2 57 3.7 ENE 9 13 5 7 1026.0 1026.0 0.0

Other Formats:

Comma delimited format used in spreadsheet applications
http://www.bom.gov.au/fwo/IDS60801/IDS60801.94682.axf

JavaScript Object Notation format (JSON) in row-major order
http://www.bom.gov.au/fwo/IDS60801/IDS60801.94682.json